EFMI

Mikkeli Airport

Mikkeli, Finland
METAR EFMI 220620Z AUTO 06005KT 320V130 9999 FEW017 BKN020 02/M03 Q1009
Observed Flight Rules
Apr-22 @ 06:20 UTC (33 minutes ago) Marginal Visual Flight Rules
Wind Visibility Clouds
60° at 5 knots 10,000+ meters
  • Few at 1,700' AGL
  • Broken at 2,000' AGL
Temperatures Readings
Current 2°C / 36°F
Dewpoint -3°C / 27°F
Humidity 70%
Altimeter 29.79" Hg
Pressure 1009 hPa
Elevation 138
METAR EFMI 220620Z AUTO 06005KT 320V130 9999 FEW017 BKN020 02/M03 Q1009
Observed Flight Rules
Apr-22 @ 06:20 UTC
(33 minutes ago)
MVFR
Wind Visibility
60° at 5 knots 10,000+ meters
Clouds
  • Few at 1,700' AGL
  • Broken at 2,000' AGL
Temperature Dewpoint
2°C / 36°F -3°C / 27°F
Humidity Altimeter Pressure
70% 29.79" Hg 1009 hPa